Time;durP1;ratioP1;P1;durP2;ratioP2;P2;SDS_P1;SDS_P2;PMS_P1;PMS_P2;Temp;Humidity;BMP_temperature;BMP_pressure;BME280_temperature;BME280_humidity;BME280_pressure;Samples;Min_cycle;Max_cycle;Signal;HPM_P1;HPM_P2
2023/06/07 00:00:12;;;;;;;0.32;0.20;;;;;;;15.75;90.75;97673.66;5014922;28;20049;-72
2023/06/07 00:02:41;;;;;;;0.10;0.10;;;;;;;15.77;90.54;97674.25;5033682;28;20033;-72
2023/06/07 00:05:12;;;;;;;0.30;0.30;;;;;;;15.77;90.41;97675.09;5032731;28;20465;-71
2023/06/07 00:07:40;;;;;;;0.20;0.20;;;;;;;15.79;90.35;97678.34;5033251;28;20045;-71
2023/06/07 00:10:10;;;;;;;0.13;0.13;;;;;;;15.80;90.20;97673.78;5013324;28;20477;-71
2023/06/07 00:12:38;;;;;;;0.20;0.20;;;;;;;15.78;90.38;97681.25;5033239;28;20462;-74
2023/06/07 00:15:07;;;;;;;0.20;0.20;;;;;;;15.80;90.20;97679.19;5033451;28;20041;-70
2023/06/07 00:17:37;;;;;;;0.20;0.20;;;;;;;15.80;90.13;97673.78;5032922;28;20129;-72
2023/06/07 00:20:08;;;;;;;0.20;0.20;;;;;;;15.82;90.02;97673.56;5030587;28;20099;-71
2023/06/07 00:22:37;;;;;;;0.20;0.20;;;;;;;15.78;89.99;97681.25;5033310;28;20401;-71
2023/06/07 00:25:05;;;;;;;0.20;0.20;;;;;;;15.71;90.28;97675.97;5025665;28;20398;-72
2023/06/07 00:27:34;;;;;;;0.30;0.30;;;;;;;15.72;90.18;97672.22;5030758;28;20045;-72
2023/06/07 00:30:03;;;;;;;0.20;0.20;;;;;;;15.73;90.27;97678.44;5014899;28;20045;-71
2023/06/07 00:32:31;;;;;;;0.28;0.28;;;;;;;15.74;90.27;97675.53;5033645;28;20041;-71
2023/06/07 00:34:59;;;;;;;0.20;0.20;;;;;;;15.75;90.33;97670.97;5033261;28;20037;-72
2023/06/07 00:37:27;;;;;;;0.20;0.20;;;;;;;15.76;90.19;97678.00;5030156;28;20079;-72
2023/06/07 00:39:54;;;;;;;0.20;0.20;;;;;;;15.77;90.12;97679.66;5032172;28;20512;-72
2023/06/07 00:42:22;;;;;;;0.10;0.10;;;;;;;15.78;90.11;97681.25;5013001;28;20463;-72
2023/06/07 00:44:51;;;;;;;0.20;0.20;;;;;;;15.78;90.02;97676.69;5032967;28;20041;-72
2023/06/07 00:47:19;;;;;;;0.15;0.15;;;;;;;15.79;90.16;97680.22;5014702;28;20396;-72
2023/06/07 00:49:48;;;;;;;0.30;0.30;;;;;;;15.79;90.01;97686.44;5021655;28;20038;-72
2023/06/07 00:52:15;;;;;;;0.10;0.10;;;;;;;15.80;90.15;97679.19;5013175;28;20607;-71
2023/06/07 00:54:44;;;;;;;0.28;0.28;;;;;;;15.77;90.03;97685.84;5031580;28;20120;-71
2023/06/07 00:57:13;;;;;;;0.30;0.30;;;;;;;15.75;89.96;97679.88;5015081;28;20053;-72
2023/06/07 00:59:41;;;;;;;0.13;0.13;;;;;;;15.74;90.01;97675.53;5032712;28;20041;-72
2023/06/07 01:02:12;;;;;;;0.20;0.20;;;;;;;15.75;90.27;97681.75;5013961;28;20049;-72
2023/06/07 01:04:40;;;;;;;0.15;0.15;;;;;;;15.72;90.18;97680.31;5014378;28;20077;-72
2023/06/07 01:07:08;;;;;;;0.20;0.20;;;;;;;15.69;90.34;97675.38;5031223;28;20103;-72
2023/06/07 01:09:40;;;;;;;0.13;0.13;;;;;;;15.74;90.17;97669.31;5031492;28;20385;-72
2023/06/07 01:12:13;;;;;;;0.10;0.10;;;;;;;15.76;90.04;97672.63;5012848;28;20116;-72
2023/06/07 01:14:41;;;;;;;0.20;0.20;;;;;;;15.73;90.21;97663.13;5009239;28;20037;-71
2023/06/07 01:17:12;;;;;;;0.20;0.20;;;;;;;15.73;90.08;97671.19;5032736;28;20523;-71
2023/06/07 01:19:42;;;;;;;0.20;0.20;;;;;;;15.76;89.80;97672.63;5028520;28;20069;-72
2023/06/07 01:22:10;;;;;;;0.22;0.22;;;;;;;15.75;89.97;97669.09;5014216;28;20051;-71
2023/06/07 01:24:42;;;;;;;0.20;0.20;;;;;;;15.77;89.85;97668.88;5031204;28;20069;-71
2023/06/07 01:27:10;;;;;;;0.20;0.20;;;;;;;15.72;89.87;97664.16;5028721;28;20041;-71
2023/06/07 01:29:40;;;;;;;0.25;0.25;;;;;;;15.76;89.83;97667.25;5031988;28;20587;-71
2023/06/07 01:32:11;;;;;;;0.20;0.20;;;;;;;15.75;89.72;97662.91;5024775;28;20586;-72
2023/06/07 01:34:40;;;;;;;0.10;0.10;;;;;;;15.74;89.84;97662.06;5032066;28;20127;-71
2023/06/07 01:37:08;;;;;;;0.20;0.20;;;;;;;15.73;89.83;97659.59;5019641;28;20072;-71
2023/06/07 01:39:38;;;;;;;0.30;0.30;;;;;;;15.72;89.73;97661.47;5031279;28;20496;-72
2023/06/07 01:42:06;;;;;;;0.30;0.30;;;;;;;15.72;89.82;97658.78;5013404;28;20056;-73
2023/06/07 01:44:35;;;;;;;0.20;0.20;;;;;;;15.69;89.86;97653.00;5030790;28;20124;-72
2023/06/07 01:47:03;;;;;;;0.10;0.10;;;;;;;15.67;90.02;97655.97;5003541;28;20128;-72
2023/06/07 01:49:30;;;;;;;0.30;0.20;;;;;;;15.64;90.13;97653.72;5014367;28;20045;-72
2023/06/07 01:51:59;;;;;;;0.28;0.28;;;;;;;15.65;89.97;97654.53;5028975;28;20037;-72
2023/06/07 01:54:27;;;;;;;0.20;0.20;;;;;;;15.64;90.03;97652.88;5029205;28;20382;-72
2023/06/07 01:57:04;;;;;;;0.20;0.20;;;;;;;15.60;90.27;97647.13;5031448;28;20065;-72
2023/06/07 01:59:37;;;;;;;0.20;0.20;;;;;;;15.55;90.36;97641.59;5014010;28;20566;-72
2023/06/07 02:02:08;;;;;;;0.20;0.20;;;;;;;15.60;90.37;97657.06;5011286;28;20045;-72
2023/06/07 02:04:48;;;;;;;0.22;0.22;;;;;;;15.61;90.16;97648.78;5030837;28;20034;-73
2023/06/07 02:07:22;;;;;;;0.25;0.25;;;;;;;15.59;90.36;97648.16;5017289;28;20045;-74
2023/06/07 02:09:50;;;;;;;0.17;0.17;;;;;;;15.56;90.29;97645.94;5011034;28;20107;-73
2023/06/07 02:12:20;;;;;;;0.15;0.15;;;;;;;15.57;90.43;97649.47;5003768;28;20099;-74
2023/06/07 02:14:52;;;;;;;0.10;0.10;;;;;;;15.57;90.36;97650.28;5031093;28;20075;-73
2023/06/07 02:17:20;;;;;;;0.20;0.20;;;;;;;15.58;90.17;97648.38;5013898;28;20044;-73
2023/06/07 02:19:48;;;;;;;0.40;0.40;;;;;;;15.59;90.11;97650.03;5007762;28;20037;-74
2023/06/07 02:22:15;;;;;;;0.20;0.20;;;;;;;15.61;90.06;97642.56;5009770;28;20056;-74
2023/06/07 02:24:44;;;;;;;0.20;0.20;;;;;;;15.61;90.02;97651.47;5013671;28;20045;-73
2023/06/07 02:27:12;;;;;;;0.40;0.40;;;;;;;15.59;90.17;97645.47;5029569;28;20045;-74
2023/06/07 02:29:41;;;;;;;0.20;0.20;;;;;;;15.60;90.18;97649.81;5030808;28;20121;-73
2023/06/07 02:32:09;;;;;;;0.20;0.20;;;;;;;15.56;90.16;97642.44;5028295;28;20053;-73
2023/06/07 02:34:37;;;;;;;0.20;0.20;;;;;;;15.59;90.21;97644.66;5013340;28;20528;-73
2023/06/07 02:37:05;;;;;;;0.20;0.20;;;;;;;15.61;90.05;97638.00;5029617;28;20069;-73
2023/06/07 02:39:33;;;;;;;0.20;0.20;;;;;;;15.60;89.96;97649.00;5031020;28;20037;-73
2023/06/07 02:42:00;;;;;;;0.30;0.30;;;;;;;15.59;89.93;97648.16;5022191;28;20132;-72
2023/06/07 02:44:28;;;;;;;0.40;0.30;;;;;;;15.58;90.01;97646.53;5013106;28;20071;-72
2023/06/07 02:46:59;;;;;;;0.28;0.25;;;;;;;15.59;90.11;97656.25;5027987;28;20512;-71
2023/06/07 02:49:26;;;;;;;0.22;0.22;;;;;;;15.59;90.22;97647.34;5010286;28;20100;-72
2023/06/07 02:51:54;;;;;;;0.30;0.30;;;;;;;15.61;90.13;97659.53;5009952;28;20046;-72
2023/06/07 02:54:22;;;;;;;0.10;0.10;;;;;;;15.62;90.20;97660.34;5012210;28;20064;-73
2023/06/07 02:56:50;;;;;;;0.20;0.20;;;;;;;15.61;90.07;97654.16;5012949;28;20111;-72
2023/06/07 02:59:18;;;;;;;0.20;0.20;;;;;;;15.61;90.17;97656.84;5012226;28;20378;-75
2023/06/07 03:01:46;;;;;;;0.20;0.20;;;;;;;15.63;90.16;97656.63;5010045;28;20459;-74
2023/06/07 03:04:18;;;;;;;0.30;0.30;;;;;;;15.63;90.30;97656.63;5007227;28;20144;-72
2023/06/07 03:06:48;;;;;;;0.20;0.20;;;;;;;15.63;90.24;97665.50;5028563;28;20037;-74
2023/06/07 03:09:24;;;;;;;0.20;0.20;;;;;;;15.66;90.08;97656.19;5007753;28;20064;-74
2023/06/07 03:11:52;;;;;;;0.20;0.20;;;;;;;15.64;90.18;97664.47;5025919;28;20049;-72
2023/06/07 03:14:23;;;;;;;0.22;0.22;;;;;;;15.63;90.29;97659.31;5016792;28;20041;-72
2023/06/07 03:16:53;;;;;;;0.30;0.30;;;;;;;15.66;90.22;97666.94;5034899;28;20042;-75
2023/06/07 03:19:23;;;;;;;0.20;0.20;;;;;;;15.64;90.20;97658.25;5011684;28;20045;-74
2023/06/07 03:21:53;;;;;;;0.30;0.30;;;;;;;15.64;90.27;97660.97;5027780;28;20049;-74
2023/06/07 03:24:23;;;;;;;0.20;0.20;;;;;;;15.64;90.12;97661.78;5017186;28;20197;-74
2023/06/07 03:26:52;;;;;;;0.20;0.20;;;;;;;15.66;90.12;97666.94;5014379;28;20042;-74
2023/06/07 03:29:20;;;;;;;0.20;0.20;;;;;;;15.66;90.22;97667.78;5027661;28;20524;-75
2023/06/07 03:31:47;;;;;;;0.20;0.20;;;;;;;15.65;90.18;97668.81;5011989;28;20428;-74
2023/06/07 03:34:17;;;;;;;0.20;0.20;;;;;;;15.66;90.14;97673.16;5025256;28;20080;-75
2023/06/07 03:36:47;;;;;;;0.30;0.30;;;;;;;15.67;90.07;97665.91;5017525;28;20501;-74
2023/06/07 03:39:17;;;;;;;0.22;0.22;;;;;;;15.67;90.01;97672.09;5031784;28;20045;-74
2023/06/07 03:41:45;;;;;;;0.30;0.20;;;;;;;15.64;90.26;97669.03;5012101;28;20072;-75
2023/06/07 03:44:17;;;;;;;;;;;;;;;15.65;90.07;97670.69;5015993;28;20049;-74
2023/06/07 03:46:46;;;;;;;0.20;0.20;;;;;;;15.66;89.98;97669.63;5018167;28;20300;-73
2023/06/07 03:49:14;;;;;;;0.30;0.30;;;;;;;15.67;90.01;97674.78;5034465;28;20037;-74
2023/06/07 03:51:43;;;;;;;0.20;0.20;;;;;;;15.68;89.96;97659.44;5021742;28;20107;-73
2023/06/07 03:54:14;;;;;;;0.22;0.22;;;;;;;15.67;89.91;97665.91;5018377;28;20599;-74
2023/06/07 03:56:43;;;;;;;0.22;0.22;;;;;;;15.68;89.79;97671.03;5014256;28;20221;-75
2023/06/07 03:59:12;;;;;;;0.30;0.30;;;;;;;15.66;89.82;97670.47;5032863;28;20051;-72
2023/06/07 04:01:42;;;;;;;0.30;0.30;;;;;;;15.68;89.78;97664.81;5015565;28;20044;-74
2023/06/07 04:04:10;;;;;;;0.20;0.20;;;;;;;15.68;89.70;97662.97;5033848;28;20117;-75
2023/06/07 04:06:39;;;;;;;0.30;0.30;;;;;;;15.60;90.03;97662.44;5033383;28;20045;-75
2023/06/07 04:09:08;;;;;;;0.20;0.20;;;;;;;15.61;89.88;97658.72;5024140;28;20073;-75
2023/06/07 04:11:37;;;;;;;0.20;0.20;;;;;;;15.60;89.88;97662.44;5031943;28;20037;-75
2023/06/07 04:14:05;;;;;;;0.30;0.30;;;;;;;15.62;89.89;97665.75;5013459;28;20522;-75
2023/06/07 04:16:33;;;;;;;0.20;0.20;;;;;;;15.62;89.76;97655.78;5011884;28;20137;-75
2023/06/07 04:19:01;;;;;;;0.30;0.30;;;;;;;15.62;89.76;97663.03;5015369;28;20044;-76
2023/06/07 04:21:33;;;;;;;0.40;0.25;;;;;;;15.62;89.69;97661.19;5011539;28;20129;-73
2023/06/07 04:24:04;;;;;;;0.30;0.30;;;;;;;15.65;89.84;97668.00;5015179;28;20053;-75
2023/06/07 04:26:31;;;;;;;0.30;0.30;;;;;;;15.66;89.62;97667.78;5014260;28;20092;-75
2023/06/07 04:29:01;;;;;;;0.38;0.38;;;;;;;15.67;89.56;97672.09;5010954;28;20405;-74
2023/06/07 04:31:34;;;;;;;0.20;0.20;;;;;;;15.68;89.51;97662.13;5022028;28;20107;-75
2023/06/07 04:34:05;;;;;;;0.13;0.13;;;;;;;15.70;89.67;97668.94;5026067;28;20647;-75
2023/06/07 04:36:39;;;;;;;0.30;0.30;;;;;;;15.71;89.39;97664.38;5009364;28;20037;-74
2023/06/07 04:39:18;;;;;;;0.20;0.20;;;;;;;15.73;89.22;97667.69;5029428;28;20072;-75
2023/06/07 04:41:52;;;;;;;0.30;0.30;;;;;;;15.77;89.24;97667.00;5023644;28;20034;-75
2023/06/07 04:44:28;;;;;;;0.10;0.10;;;;;;;15.76;89.24;97667.25;5015820;28;20168;-75
2023/06/07 04:47:08;;;;;;;0.30;0.30;;;;;;;15.78;89.12;97671.31;5012803;28;20083;-74
2023/06/07 04:49:40;;;;;;;0.20;0.20;;;;;;;15.79;89.30;97666.75;5003942;28;20077;-74
2023/06/07 04:52:08;;;;;;;0.20;0.20;;;;;;;15.80;89.29;97671.09;5010838;28;20044;-74
2023/06/07 04:54:38;;;;;;;0.30;0.30;;;;;;;15.81;89.13;97672.75;5014269;28;20041;-73
2023/06/07 04:57:08;;;;;;;0.30;0.30;;;;;;;15.82;89.01;97671.69;5010302;28;20067;-74
2023/06/07 04:59:42;;;;;;;0.30;0.30;;;;;;;15.82;88.93;97677.09;5029758;28;20037;-74
2023/06/07 05:02:13;;;;;;;0.20;0.20;;;;;;;15.84;88.82;97668.78;5008238;28;20047;-74
2023/06/07 05:04:42;;;;;;;0.35;0.35;;;;;;;15.84;88.89;97674.19;5029634;28;20398;-75
2023/06/07 05:07:11;;;;;;;0.22;0.22;;;;;;;15.86;88.67;97674.78;5010677;28;20041;-74
2023/06/07 05:09:42;;;;;;;0.20;0.20;;;;;;;15.87;88.66;97684.50;5023826;28;20046;-73
2023/06/07 05:12:10;;;;;;;0.28;0.25;;;;;;;15.91;88.75;97674.91;5006116;28;20050;-74
2023/06/07 05:14:40;;;;;;;0.40;0.40;;;;;;;15.98;88.55;97681.03;5030241;28;20033;-75
2023/06/07 05:17:08;;;;;;;0.30;0.30;;;;;;;16.00;88.26;97678.94;5014464;28;20072;-72
2023/06/07 05:19:36;;;;;;;0.20;0.20;;;;;;;16.02;88.13;97682.22;5030109;28;20042;-73
2023/06/07 05:22:05;;;;;;;0.30;0.30;;;;;;;16.05;87.83;97687.16;5003965;28;20081;-73
2023/06/07 05:24:34;;;;;;;0.10;0.10;;;;;;;16.02;87.54;97687.59;5011517;28;20049;-72
2023/06/07 05:27:02;;;;;;;0.20;0.20;;;;;;;16.02;86.99;97691.13;5014004;28;20141;-74
2023/06/07 05:29:30;;;;;;;0.25;0.22;;;;;;;16.09;87.26;97688.38;5011395;28;20037;-73
2023/06/07 05:31:59;;;;;;;0.30;0.30;;;;;;;16.11;87.14;97686.25;5037836;28;20041;-72
2023/06/07 05:34:28;;;;;;;0.20;0.20;;;;;;;16.19;86.15;97679.72;5020730;28;20046;-72
2023/06/07 05:36:56;;;;;;;0.20;0.20;;;;;;;16.25;86.23;97673.41;5025749;28;20132;-72
2023/06/07 05:39:26;;;;;;;0.28;0.28;;;;;;;16.32;86.09;97672.28;5037138;28;20068;-72
2023/06/07 05:41:53;;;;;;;0.20;0.20;;;;;;;16.35;85.29;97679.09;5027221;28;20049;-72
2023/06/07 05:44:21;;;;;;;0.20;0.20;;;;;;;16.37;85.17;97683.19;5014745;28;20586;-72
2023/06/07 05:46:48;;;;;;;0.20;0.20;;;;;;;16.40;84.72;97685.41;5020733;28;20053;-72
2023/06/07 05:49:17;;;;;;;0.30;0.30;;;;;;;16.44;84.37;97688.47;5032500;28;20033;-72
2023/06/07 05:51:45;;;;;;;0.20;0.20;;;;;;;16.43;83.79;97698.44;5008160;28;20048;-73
2023/06/07 05:54:14;;;;;;;0.20;0.20;;;;;;;16.44;83.67;97692.00;5031503;28;20060;-72
2023/06/07 05:56:42;;;;;;;0.15;0.15;;;;;;;16.46;84.04;97697.97;5030262;28;20091;-72
2023/06/07 05:59:10;;;;;;;0.20;0.20;;;;;;;16.46;83.66;97694.47;5027549;28;20038;-71
2023/06/07 06:01:37;;;;;;;0.10;0.10;;;;;;;16.49;82.73;97694.00;5026411;28;20049;-72
2023/06/07 06:04:05;;;;;;;0.20;0.20;;;;;;;16.53;82.77;97693.31;5028085;28;20056;-72
2023/06/07 06:06:36;;;;;;;0.20;0.20;;;;;;;16.60;82.82;97693.22;5027003;28;20046;-72
2023/06/07 06:09:04;;;;;;;0.15;0.15;;;;;;;16.65;82.68;97697.94;5023907;28;20042;-72
2023/06/07 06:11:32;;;;;;;0.30;0.30;;;;;;;16.73;82.83;97693.03;5027907;28;20041;-73
2023/06/07 06:13:59;;;;;;;0.20;0.20;;;;;;;16.82;82.40;97694.34;5030223;28;20047;-72
2023/06/07 06:16:27;;;;;;;0.10;0.10;;;;;;;16.86;81.87;97695.53;5027148;28;20042;-72
2023/06/07 06:18:54;;;;;;;0.20;0.20;;;;;;;16.94;81.02;97705.16;5029627;28;20043;-72
2023/06/07 06:21:22;;;;;;;0.17;0.17;;;;;;;17.01;79.63;97700.50;5026030;28;20444;-71
2023/06/07 06:23:51;;;;;;;0.17;0.17;;;;;;;17.13;79.49;97704.00;5028769;28;20058;-73
2023/06/07 06:26:21;;;;;;;0.20;0.20;;;;;;;17.19;78.86;97696.84;5030793;28;20056;-72
2023/06/07 06:28:49;;;;;;;0.20;0.20;;;;;;;17.23;78.01;97696.13;5025623;28;20497;-72
2023/06/07 06:31:16;;;;;;;0.20;0.20;;;;;;;17.35;78.59;97708.81;5030228;28;20041;-71
2023/06/07 06:33:44;;;;;;;0.10;0.10;;;;;;;17.44;78.32;97694.72;5026420;28;20412;-74
2023/06/07 06:36:12;;;;;;;0.20;0.20;;;;;;;17.51;77.53;97700.84;5029801;28;20457;-73
2023/06/07 06:38:40;;;;;;;0.43;0.17;;;;;;;17.51;77.45;97708.13;5025774;28;20045;-72
2023/06/07 06:41:09;;;;;;;0.20;0.17;;;;;;;17.56;76.21;97702.81;5028256;28;20085;-72
2023/06/07 06:43:36;;;;;;;0.20;0.20;;;;;;;17.61;77.15;97700.25;5031183;28;20056;-73
2023/06/07 06:46:05;;;;;;;0.10;0.10;;;;;;;17.63;76.52;97700.88;5022289;28;20349;-72
2023/06/07 06:48:33;;;;;;;0.10;0.10;;;;;;;17.63;75.87;97714.38;5034987;28;20705;-73
2023/06/07 06:51:00;;;;;;;0.10;0.10;;;;;;;17.65;76.58;97711.44;5033020;28;20412;-72
2023/06/07 06:53:28;;;;;;;0.20;0.15;;;;;;;17.66;76.95;97713.88;5035275;28;20049;-72
2023/06/07 06:55:55;;;;;;;0.10;0.10;;;;;;;17.70;76.88;97714.22;5035640;28;20041;-71
2023/06/07 06:58:24;;;;;;;0.20;0.20;;;;;;;17.76;76.51;97714.09;5037867;28;20037;-72
2023/06/07 07:00:52;;;;;;;0.13;0.13;;;;;;;17.79;75.59;97719.03;5026528;28;20505;-72
2023/06/07 07:03:21;;;;;;;0.20;0.20;;;;;;;17.82;75.53;97715.03;5027052;28;20042;-71
2023/06/07 07:05:48;;;;;;;0.20;0.20;;;;;;;17.87;75.37;97721.34;5029733;28;20041;-72
2023/06/07 07:08:17;;;;;;;0.10;0.10;;;;;;;17.94;73.91;97722.06;5035388;28;20041;-72
2023/06/07 07:10:47;;;;;;;0.10;0.10;;;;;;;17.97;73.60;97720.75;5035139;28;20080;-72
2023/06/07 07:13:15;;;;;;;0.10;0.10;;;;;;;18.00;73.33;97724.84;5016205;28;20045;-72
2023/06/07 07:15:44;;;;;;;0.25;0.25;;;;;;;18.01;72.76;97718.38;5036518;28;20566;-72
2023/06/07 07:18:13;;;;;;;0.10;0.10;;;;;;;17.96;72.67;97732.63;5031615;28;20077;-71
2023/06/07 07:20:40;;;;;;;0.28;0.28;;;;;;;18.01;72.82;97727.31;5037009;28;20116;-73
2023/06/07 07:23:08;;;;;;;0.17;0.17;;;;;;;18.04;73.12;97731.44;5028009;28;20042;-71
2023/06/07 07:25:36;;;;;;;0.20;0.20;;;;;;;18.07;72.55;97733.63;5036087;28;20053;-72
2023/06/07 07:28:04;;;;;;;0.20;0.20;;;;;;;18.06;71.09;97737.41;5033488;28;20378;-73
2023/06/07 07:30:31;;;;;;;0.13;0.13;;;;;;;18.11;71.91;97734.81;5032670;28;20400;-72
2023/06/07 07:33:00;;;;;;;0.20;0.20;;;;;;;18.11;72.18;97734.81;5036790;28;20057;-72
2023/06/07 07:35:28;;;;;;;0.13;0.13;;;;;;;18.11;71.44;97735.63;5034620;28;20068;-72
2023/06/07 07:38:01;;;;;;;0.20;0.20;;;;;;;18.14;71.73;97734.34;5034922;28;20504;-72
2023/06/07 07:40:29;;;;;;;0.20;0.20;;;;;;;18.19;71.61;97737.13;5014582;28;20067;-72
2023/06/07 07:42:58;;;;;;;0.20;0.20;;;;;;;18.21;71.00;97740.41;5036592;28;20045;-71
2023/06/07 07:45:26;;;;;;;0.15;0.15;;;;;;;18.21;70.90;97733.13;5033559;28;20125;-70
2023/06/07 07:47:53;;;;;;;0.13;0.13;;;;;;;18.22;70.90;97731.25;5035406;28;20052;-72
2023/06/07 07:50:23;;;;;;;0.13;0.13;;;;;;;18.22;71.39;97733.97;5032772;28;20044;-69
2023/06/07 07:52:53;;;;;;;0.20;0.20;;;;;;;18.29;71.12;97740.03;5034568;28;20095;-70
2023/06/07 07:55:23;;;;;;;0.10;0.10;;;;;;;18.33;70.42;97733.09;5037131;28;20045;-72
2023/06/07 07:57:50;;;;;;;0.13;0.13;;;;;;;18.33;70.12;97744.72;5035428;28;20051;-71
2023/06/07 08:00:18;;;;;;;0.20;0.10;;;;;;;18.34;70.23;97740.16;5029048;28;20037;-70
2023/06/07 08:02:46;;;;;;;0.30;0.30;;;;;;;18.33;70.40;97746.63;5031377;28;20052;-70
2023/06/07 08:05:14;;;;;;;0.20;0.20;;;;;;;18.37;70.45;97736.97;5028318;28;20041;-71
2023/06/07 08:07:43;;;;;;;1.30;0.20;;;;;;;18.42;70.68;97737.06;5030034;28;20042;-71
2023/06/07 08:10:11;;;;;;;0.20;0.20;;;;;;;18.48;69.45;97741.47;5026609;28;20041;-71
2023/06/07 08:12:39;;;;;;;0.20;0.20;;;;;;;18.45;70.25;97736.59;5029500;28;20033;-71
2023/06/07 08:15:08;;;;;;;0.15;0.15;;;;;;;18.59;69.77;97740.66;5032759;28;20480;-71
2023/06/07 08:17:36;;;;;;;0.10;0.10;;;;;;;18.71;69.86;97743.31;5029165;28;20050;-70
2023/06/07 08:20:08;;;;;;;0.15;0.15;;;;;;;18.76;69.40;97731.75;5031493;28;20128;-71
2023/06/07 08:22:37;;;;;;;0.20;0.20;;;;;;;18.81;69.08;97731.84;5010507;28;20073;-71
2023/06/07 08:25:07;;;;;;;0.20;0.20;;;;;;;18.82;68.96;97725.38;5030054;28;20057;-70
2023/06/07 08:27:34;;;;;;;0.20;0.20;;;;;;;18.88;67.88;97735.22;5033495;28;20041;-71
2023/06/07 08:30:02;;;;;;;0.10;0.10;;;;;;;18.94;67.69;97726.94;5031790;28;20325;-71
2023/06/07 08:32:32;;;;;;;0.10;0.10;;;;;;;18.98;68.04;97730.00;5033470;28;20402;-70
2023/06/07 08:35:00;;;;;;;0.20;0.20;;;;;;;19.05;68.00;97733.34;5026001;28;20066;-71
2023/06/07 08:37:27;;;;;;;0.00;0.00;;;;;;;19.16;68.04;97727.03;5033468;28;20049;-71
2023/06/07 08:39:55;;;;;;;0.13;0.13;;;;;;;19.28;67.30;97722.38;5024751;28;20057;-70
2023/06/07 08:42:25;;;;;;;0.10;0.10;;;;;;;19.42;66.70;97723.66;5014384;28;20045;-70
2023/06/07 08:44:52;;;;;;;0.20;0.20;;;;;;;19.43;64.95;97730.72;5013326;28;20099;-71
2023/06/07 08:47:21;;;;;;;0.20;0.20;;;;;;;19.54;65.00;97733.59;5029973;28;20083;-71
2023/06/07 08:49:49;;;;;;;0.20;0.20;;;;;;;19.63;65.02;97734.81;5031856;28;20060;-71
2023/06/07 08:52:17;;;;;;;0.20;0.20;;;;;;;19.67;64.58;97735.97;5028099;28;20079;-71
2023/06/07 08:54:46;;;;;;;0.17;0.17;;;;;;;19.57;63.61;97742.06;5033228;28;20339;-70
2023/06/07 08:57:15;;;;;;;0.10;0.10;;;;;;;19.69;63.45;97731.13;5013626;28;20046;-70
2023/06/07 08:59:46;;;;;;;0.20;0.20;;;;;;;19.69;63.46;97737.38;5028236;28;20497;-72
2023/06/07 09:02:14;;;;;;;0.20;0.20;;;;;;;19.69;63.98;97737.38;5030705;28;20037;-71
2023/06/07 09:04:42;;;;;;;0.10;0.10;;;;;;;19.81;64.54;97733.72;5028870;28;20120;-70
2023/06/07 09:07:10;;;;;;;0.15;0.15;;;;;;;19.57;64.76;97731.22;5031336;28;20042;-71
2023/06/07 09:09:38;;;;;;;0.10;0.10;;;;;;;19.76;64.31;97737.19;5033470;28;20053;-71
2023/06/07 09:12:06;;;;;;;0.20;0.20;;;;;;;19.88;64.08;97745.19;5013191;28;20121;-71
2023/06/07 09:14:35;;;;;;;0.20;0.20;;;;;;;19.89;63.30;97733.28;5032798;28;20053;-70
2023/06/07 09:17:04;;;;;;;0.25;0.20;;;;;;;19.73;64.20;97732.25;5025603;28;20041;-70
2023/06/07 09:19:36;;;;;;;0.10;0.10;;;;;;;19.88;63.86;97737.06;5030948;28;20069;-71
2023/06/07 09:22:04;;;;;;;0.25;0.20;;;;;;;19.88;63.89;97731.66;5024655;28;20052;-70
2023/06/07 09:24:32;;;;;;;0.30;0.13;;;;;;;19.83;63.53;97732.38;5029642;28;20045;-71
2023/06/07 09:27:02;;;;;;;0.10;0.10;;;;;;;20.01;63.32;97731.28;5031502;28;20045;-71
2023/06/07 09:29:38;;;;;;;0.10;0.10;;;;;;;20.11;62.00;97739.56;5028815;28;20130;-72
2023/06/07 09:32:19;;;;;;;0.10;0.10;;;;;;;20.22;62.96;97735.91;5031044;28;20672;-70
2023/06/07 09:34:46;;;;;;;0.10;0.10;;;;;;;20.24;62.57;97732.94;5027556;28;20125;-72
2023/06/07 09:37:20;;;;;;;;;;;;;;;20.28;61.49;97723.22;5032581;28;20041;-72
2023/06/07 09:39:51;;;;;;;0.20;0.20;;;;;;;20.44;60.56;97727.78;5030502;28;19964;-72
2023/06/07 09:42:18;;;;;;;0.20;0.20;;;;;;;20.57;60.28;97727.34;5030260;28;20049;-71
2023/06/07 09:44:46;;;;;;;0.20;0.10;;;;;;;20.70;59.46;97715.28;5031006;28;20124;-70
2023/06/07 09:47:22;;;;;;;0.13;0.10;;;;;;;20.92;57.50;97726.06;5028108;28;20124;-71
2023/06/07 09:49:54;;;;;;;0.17;0.10;;;;;;;21.00;58.81;97729.13;5030203;28;20480;-71
2023/06/07 09:52:23;;;;;;;0.10;0.10;;;;;;;21.29;57.24;97729.69;5027506;28;20048;-71
2023/06/07 09:54:50;;;;;;;0.10;0.10;;;;;;;21.53;57.18;97733.66;5031769;28;20045;-71
2023/06/07 09:57:32;;;;;;;0.13;0.13;;;;;;;21.47;55.92;97728.47;5030597;28;20045;-71
2023/06/07 10:00:13;;;;;;;0.20;0.20;;;;;;;21.63;55.90;97726.66;5027508;28;20099;-70
2023/06/07 10:02:42;;;;;;;0.10;0.10;;;;;;;21.92;57.18;97727.91;5031506;28;20369;-70
2023/06/07 10:05:12;;;;;;;0.10;0.10;;;;;;;22.17;56.42;97721.81;5026934;28;20057;-70
2023/06/07 10:07:43;;;;;;;0.20;0.20;;;;;;;22.30;56.19;97727.59;5029254;28;20041;-70
2023/06/07 10:10:12;;;;;;;0.10;0.10;;;;;;;22.30;54.77;97722.16;5028185;28;20398;-70
2023/06/07 10:12:41;;;;;;;0.10;0.10;;;;;;;22.26;55.75;97726.47;5033336;28;20048;-70
2023/06/07 10:15:10;;;;;;;0.10;0.10;;;;;;;22.22;55.98;97719.91;5035458;28;20041;-70
2023/06/07 10:17:48;;;;;;;0.08;0.08;;;;;;;22.20;56.01;97724.00;5028460;28;20065;-71
2023/06/07 10:20:17;;;;;;;;;;;;;;;22.03;55.75;97726.91;5031599;28;20045;-71
2023/06/07 10:22:46;;;;;;;0.20;0.20;;;;;;;21.95;56.02;97727.41;5024507;28;19931;-73
2023/06/07 10:25:16;;;;;;;0.10;0.10;;;;;;;21.74;56.60;97715.59;5029461;28;20115;-70
2023/06/07 10:27:51;;;;;;;0.10;0.10;;;;;;;21.69;56.93;97720.19;5031520;28;20097;-72
2023/06/07 10:30:21;;;;;;;0.10;0.10;;;;;;;21.56;58.21;97722.28;5031903;28;20097;-70
2023/06/07 10:32:51;;;;;;;0.10;0.10;;;;;;;21.75;58.24;97713.69;5030227;28;20047;-70
2023/06/07 10:35:20;;;;;;;0.10;0.10;;;;;;;21.95;57.00;97716.53;5026537;28;20051;-71
2023/06/07 10:37:50;;;;;;;0.10;0.10;;;;;;;21.87;55.46;97715.13;5029748;28;20631;-71
2023/06/07 10:40:18;;;;;;;0.10;0.10;;;;;;;22.02;55.63;97706.25;5016177;28;20041;-70
2023/06/07 10:42:46;;;;;;;0.10;0.10;;;;;;;22.07;54.49;97714.44;5026597;28;20038;-71
2023/06/07 10:45:18;;;;;;;0.10;0.10;;;;;;;22.04;54.16;97703.25;5027099;28;20112;-71
2023/06/07 10:47:47;;;;;;;0.10;0.10;;;;;;;22.12;55.63;97700.84;5029915;28;20060;-70
2023/06/07 10:50:49;;;;;;;0.10;0.10;;;;;;;22.33;54.89;97712.63;5026311;28;20048;-71
2023/06/07 10:53:16;;;;;;;0.20;0.10;;;;;;;22.42;55.25;97710.22;5025512;28;20631;-70
2023/06/07 10:55:44;;;;;;;0.10;0.10;;;;;;;22.52;55.67;97713.78;5029916;28;20065;-70
2023/06/07 10:58:25;;;;;;;0.10;0.10;;;;;;;22.54;55.08;97699.88;5030744;28;20508;-70
2023/06/07 11:00:54;;;;;;;0.05;0.03;;;;;;;22.59;55.17;97702.63;5024069;28;20037;-71
2023/06/07 11:03:41;;;;;;;0.10;0.08;;;;;;;22.58;54.63;97699.09;5024759;28;20042;-71
2023/06/07 11:06:10;;;;;;;0.10;0.10;;;;;;;22.63;54.00;97696.38;5019996;28;20612;-72
2023/06/07 11:08:39;;;;;;;0.20;0.20;;;;;;;22.62;53.52;97696.66;5026366;28;20050;-71
2023/06/07 11:11:43;;;;;;;0.03;0.03;;;;;;;22.82;53.22;97696.72;5026799;28;20052;-70
2023/06/07 11:14:12;;;;;;;0.10;0.10;;;;;;;22.85;52.61;97690.72;5024156;28;20056;-70
2023/06/07 11:16:40;;;;;;;0.10;0.10;;;;;;;22.68;52.72;97696.41;5026581;28;20042;-70
2023/06/07 11:19:11;;;;;;;0.20;0.20;;;;;;;22.65;52.72;97702.38;5028524;28;20473;-70
2023/06/07 11:22:04;;;;;;;0.10;0.10;;;;;;;22.83;52.47;97689.38;5025212;28;20065;-70
2023/06/07 11:24:33;;;;;;;0.08;0.00;;;;;;;22.82;51.22;97685.00;5027834;28;20496;-71
2023/06/07 11:27:01;;;;;;;0.00;0.00;;;;;;;22.80;51.29;97701.63;5021235;28;20651;-70
2023/06/07 11:29:30;;;;;;;0.10;0.10;;;;;;;22.76;51.53;97694.25;5029620;28;20497;-70
2023/06/07 11:31:59;;;;;;;0.10;0.10;;;;;;;22.69;51.59;97708.09;5029948;28;20052;-72
2023/06/07 11:34:30;;;;;;;0.13;0.13;;;;;;;22.66;51.44;97709.44;5021830;28;20046;-72
2023/06/07 11:37:09;;;;;;;0.10;0.10;;;;;;;22.74;52.38;97701.84;5033276;28;20176;-71
2023/06/07 11:39:37;;;;;;;0.93;0.10;;;;;;;22.72;50.60;97699.41;5029221;28;20043;-71
2023/06/07 11:42:06;;;;;;;0.10;0.10;;;;;;;22.76;51.38;97697.78;5032231;28;20042;-71
2023/06/07 11:44:35;;;;;;;0.10;0.10;;;;;;;22.78;51.01;97698.34;5034381;28;20501;-71